sensor_id;sensor_type;location;lat;lon;timestamp;P1;durP1;ratioP1;P2;durP2;ratioP2
50102;SDS011;35993;52.604;10.078;2022-09-09T00:04:58;5.72;;;4.00;;
50102;SDS011;35993;52.604;10.078;2022-09-09T00:15:11;4.68;;;3.45;;
50102;SDS011;35993;52.604;10.078;2022-09-09T00:17:48;4.90;;;3.50;;
50102;SDS011;35993;52.604;10.078;2022-09-09T00:20:22;4.30;;;3.33;;
50102;SDS011;35993;52.604;10.078;2022-09-09T00:23:29;5.38;;;3.60;;
50102;SDS011;35993;52.604;10.078;2022-09-09T00:28:29;3.97;;;3.22;;
50102;SDS011;35993;52.604;10.078;2022-09-09T00:31:07;3.70;;;2.88;;
50102;SDS011;35993;52.604;10.078;2022-09-09T00:33:39;3.25;;;2.80;;
50102;SDS011;35993;52.604;10.078;2022-09-09T00:36:07;5.13;;;3.00;;
50102;SDS011;35993;52.604;10.078;2022-09-09T00:43:36;3.63;;;2.65;;
50102;SDS011;35993;52.604;10.078;2022-09-09T00:46:08;5.20;;;2.55;;
50102;SDS011;35993;52.604;10.078;2022-09-09T00:51:22;3.45;;;2.50;;
50102;SDS011;35993;52.604;10.078;2022-09-09T00:59:51;3.72;;;2.28;;
50102;SDS011;35993;52.604;10.078;2022-09-09T01:02:34;4.22;;;2.20;;
50102;SDS011;35993;52.604;10.078;2022-09-09T01:05:12;3.45;;;2.20;;
50102;SDS011;35993;52.604;10.078;2022-09-09T01:07:47;3.45;;;2.05;;
50102;SDS011;35993;52.604;10.078;2022-09-09T01:12:56;3.78;;;1.65;;
50102;SDS011;35993;52.604;10.078;2022-09-09T01:15:27;2.75;;;1.90;;
50102;SDS011;35993;52.604;10.078;2022-09-09T01:17:58;4.45;;;2.25;;
50102;SDS011;35993;52.604;10.078;2022-09-09T01:20:37;5.70;;;2.88;;
50102;SDS011;35993;52.604;10.078;2022-09-09T01:23:11;3.42;;;1.88;;
50102;SDS011;35993;52.604;10.078;2022-09-09T01:28:46;2.38;;;1.52;;
50102;SDS011;35993;52.604;10.078;2022-09-09T01:31:17;1.92;;;1.65;;
50102;SDS011;35993;52.604;10.078;2022-09-09T01:33:46;2.55;;;1.58;;
50102;SDS011;35993;52.604;10.078;2022-09-09T01:36:33;2.08;;;1.60;;
50102;SDS011;35993;52.604;10.078;2022-09-09T01:39:04;2.42;;;1.67;;
50102;SDS011;35993;52.604;10.078;2022-09-09T01:41:31;6.35;;;1.90;;
50102;SDS011;35993;52.604;10.078;2022-09-09T01:44:05;2.53;;;1.88;;
50102;SDS011;35993;52.604;10.078;2022-09-09T01:46:35;5.78;;;1.80;;
50102;SDS011;35993;52.604;10.078;2022-09-09T01:49:02;3.22;;;1.70;;
50102;SDS011;35993;52.604;10.078;2022-09-09T01:51:30;5.88;;;1.90;;
50102;SDS011;35993;52.604;10.078;2022-09-09T01:53:59;2.40;;;1.80;;
50102;SDS011;35993;52.604;10.078;2022-09-09T02:04:44;2.53;;;1.65;;
50102;SDS011;35993;52.604;10.078;2022-09-09T02:07:44;3.63;;;1.77;;
50102;SDS011;35993;52.604;10.078;2022-09-09T02:10:31;3.80;;;1.70;;
50102;SDS011;35993;52.604;10.078;2022-09-09T02:13:16;1.67;;;1.35;;
50102;SDS011;35993;52.604;10.078;2022-09-09T02:15:58;2.20;;;1.52;;
50102;SDS011;35993;52.604;10.078;2022-09-09T02:21:30;4.55;;;1.70;;
50102;SDS011;35993;52.604;10.078;2022-09-09T02:23:57;3.13;;;1.50;;
50102;SDS011;35993;52.604;10.078;2022-09-09T02:26:27;2.38;;;1.40;;
50102;SDS011;35993;52.604;10.078;2022-09-09T02:29:00;3.67;;;1.30;;
50102;SDS011;35993;52.604;10.078;2022-09-09T02:31:28;2.67;;;1.40;;
50102;SDS011;35993;52.604;10.078;2022-09-09T02:34:00;4.07;;;1.58;;
50102;SDS011;35993;52.604;10.078;2022-09-09T02:36:29;2.17;;;1.55;;
50102;SDS011;35993;52.604;10.078;2022-09-09T02:38:59;3.03;;;1.60;;
50102;SDS011;35993;52.604;10.078;2022-09-09T02:41:31;2.88;;;1.60;;
50102;SDS011;35993;52.604;10.078;2022-09-09T02:43:59;5.05;;;2.20;;
50102;SDS011;35993;52.604;10.078;2022-09-09T02:51:53;2.05;;;1.40;;
50102;SDS011;35993;52.604;10.078;2022-09-09T02:54:32;2.45;;;1.10;;
50102;SDS011;35993;52.604;10.078;2022-09-09T02:59:45;3.00;;;1.13;;
50102;SDS011;35993;52.604;10.078;2022-09-09T03:02:12;2.10;;;1.10;;
50102;SDS011;35993;52.604;10.078;2022-09-09T03:04:40;2.85;;;1.27;;
50102;SDS011;35993;52.604;10.078;2022-09-09T03:07:09;2.75;;;1.40;;
50102;SDS011;35993;52.604;10.078;2022-09-09T03:09:35;2.42;;;1.17;;
50102;SDS011;35993;52.604;10.078;2022-09-09T03:12:00;1.75;;;1.10;;
50102;SDS011;35993;52.604;10.078;2022-09-09T03:14:28;2.38;;;1.20;;
50102;SDS011;35993;52.604;10.078;2022-09-09T03:16:54;2.28;;;1.20;;
50102;SDS011;35993;52.604;10.078;2022-09-09T03:19:22;3.03;;;1.17;;
50102;SDS011;35993;52.604;10.078;2022-09-09T03:21:49;3.58;;;1.73;;
50102;SDS011;35993;52.604;10.078;2022-09-09T03:24:15;1.90;;;1.10;;
50102;SDS011;35993;52.604;10.078;2022-09-09T03:26:41;2.17;;;1.45;;
50102;SDS011;35993;52.604;10.078;2022-09-09T03:29:12;2.13;;;1.40;;
50102;SDS011;35993;52.604;10.078;2022-09-09T03:31:39;3.13;;;1.50;;
50102;SDS011;35993;52.604;10.078;2022-09-09T03:34:05;2.95;;;1.20;;
50102;SDS011;35993;52.604;10.078;2022-09-09T03:36:33;1.77;;;1.30;;
50102;SDS011;35993;52.604;10.078;2022-09-09T03:38:58;3.22;;;1.17;;
50102;SDS011;35993;52.604;10.078;2022-09-09T03:41:28;3.03;;;1.65;;
50102;SDS011;35993;52.604;10.078;2022-09-09T03:43:54;2.13;;;1.20;;
50102;SDS011;35993;52.604;10.078;2022-09-09T03:46:22;2.05;;;1.10;;
50102;SDS011;35993;52.604;10.078;2022-09-09T03:48:50;3.38;;;1.48;;
50102;SDS011;35993;52.604;10.078;2022-09-09T03:51:17;3.25;;;1.50;;
50102;SDS011;35993;52.604;10.078;2022-09-09T03:53:43;4.53;;;1.40;;
50102;SDS011;35993;52.604;10.078;2022-09-09T03:56:09;4.95;;;1.48;;
50102;SDS011;35993;52.604;10.078;2022-09-09T03:58:36;4.82;;;1.23;;
50102;SDS011;35993;52.604;10.078;2022-09-09T04:01:08;3.40;;;1.48;;
50102;SDS011;35993;52.604;10.078;2022-09-09T04:03:37;2.20;;;1.20;;
50102;SDS011;35993;52.604;10.078;2022-09-09T04:06:03;3.58;;;1.20;;
50102;SDS011;35993;52.604;10.078;2022-09-09T04:08:31;5.05;;;1.40;;
50102;SDS011;35993;52.604;10.078;2022-09-09T04:10:58;3.08;;;1.30;;
50102;SDS011;35993;52.604;10.078;2022-09-09T04:13:25;1.70;;;1.35;;
50102;SDS011;35993;52.604;10.078;2022-09-09T04:15:52;2.30;;;1.40;;
50102;SDS011;35993;52.604;10.078;2022-09-09T04:18:22;4.32;;;1.30;;
50102;SDS011;35993;52.604;10.078;2022-09-09T04:20:49;2.13;;;1.27;;
50102;SDS011;35993;52.604;10.078;2022-09-09T04:23:18;2.63;;;1.50;;
50102;SDS011;35993;52.604;10.078;2022-09-09T04:25:46;3.38;;;1.40;;
50102;SDS011;35993;52.604;10.078;2022-09-09T04:30:44;3.50;;;1.15;;
50102;SDS011;35993;52.604;10.078;2022-09-09T04:33:11;2.55;;;1.40;;
50102;SDS011;35993;52.604;10.078;2022-09-09T04:35:38;2.15;;;1.40;;
50102;SDS011;35993;52.604;10.078;2022-09-09T04:38:08;3.15;;;1.35;;
50102;SDS011;35993;52.604;10.078;2022-09-09T04:40:35;2.50;;;1.23;;
50102;SDS011;35993;52.604;10.078;2022-09-09T04:43:01;3.20;;;1.40;;
50102;SDS011;35993;52.604;10.078;2022-09-09T04:45:31;4.93;;;1.40;;
50102;SDS011;35993;52.604;10.078;2022-09-09T04:47:57;6.93;;;1.50;;
50102;SDS011;35993;52.604;10.078;2022-09-09T04:50:23;2.92;;;1.35;;
50102;SDS011;35993;52.604;10.078;2022-09-09T04:52:59;3.95;;;1.38;;
50102;SDS011;35993;52.604;10.078;2022-09-09T04:55:27;5.75;;;1.40;;
50102;SDS011;35993;52.604;10.078;2022-09-09T04:57:53;3.42;;;1.40;;
50102;SDS011;35993;52.604;10.078;2022-09-09T05:00:19;2.85;;;1.40;;
50102;SDS011;35993;52.604;10.078;2022-09-09T05:02:46;2.80;;;1.48;;
50102;SDS011;35993;52.604;10.078;2022-09-09T05:05:12;4.00;;;1.10;;
50102;SDS011;35993;52.604;10.078;2022-09-09T05:07:38;2.67;;;1.30;;
50102;SDS011;35993;52.604;10.078;2022-09-09T05:10:04;3.45;;;1.73;;
50102;SDS011;35993;52.604;10.078;2022-09-09T05:12:31;3.95;;;1.90;;
50102;SDS011;35993;52.604;10.078;2022-09-09T05:14:57;2.17;;;1.30;;
50102;SDS011;35993;52.604;10.078;2022-09-09T05:17:23;3.10;;;1.58;;
50102;SDS011;35993;52.604;10.078;2022-09-09T05:19:48;2.70;;;1.40;;
50102;SDS011;35993;52.604;10.078;2022-09-09T05:22:20;3.33;;;1.40;;
50102;SDS011;35993;52.604;10.078;2022-09-09T05:24:49;3.45;;;1.58;;
50102;SDS011;35993;52.604;10.078;2022-09-09T05:27:18;1.63;;;1.30;;
50102;SDS011;35993;52.604;10.078;2022-09-09T05:29:46;4.90;;;1.45;;
50102;SDS011;35993;52.604;10.078;2022-09-09T05:32:12;3.28;;;1.70;;
50102;SDS011;35993;52.604;10.078;2022-09-09T05:34:40;2.95;;;1.52;;
50102;SDS011;35993;52.604;10.078;2022-09-09T05:37:06;2.90;;;1.70;;
50102;SDS011;35993;52.604;10.078;2022-09-09T05:39:33;3.08;;;1.60;;
50102;SDS011;35993;52.604;10.078;2022-09-09T05:42:02;5.28;;;1.60;;
50102;SDS011;35993;52.604;10.078;2022-09-09T05:44:31;4.32;;;1.70;;
50102;SDS011;35993;52.604;10.078;2022-09-09T05:46:58;2.75;;;1.40;;
50102;SDS011;35993;52.604;10.078;2022-09-09T05:49:24;4.05;;;1.65;;
50102;SDS011;35993;52.604;10.078;2022-09-09T05:51:50;2.95;;;1.58;;
50102;SDS011;35993;52.604;10.078;2022-09-09T05:54:17;6.05;;;1.60;;
50102;SDS011;35993;52.604;10.078;2022-09-09T05:56:47;3.25;;;1.80;;
50102;SDS011;35993;52.604;10.078;2022-09-09T05:59:15;4.40;;;1.40;;
50102;SDS011;35993;52.604;10.078;2022-09-09T06:01:41;2.35;;;1.50;;
50102;SDS011;35993;52.604;10.078;2022-09-09T06:04:11;4.00;;;1.60;;
50102;SDS011;35993;52.604;10.078;2022-09-09T06:06:39;6.78;;;1.88;;
50102;SDS011;35993;52.604;10.078;2022-09-09T06:09:12;2.55;;;1.42;;
50102;SDS011;35993;52.604;10.078;2022-09-09T06:11:40;4.53;;;1.60;;
50102;SDS011;35993;52.604;10.078;2022-09-09T06:14:08;5.65;;;1.60;;
50102;SDS011;35993;52.604;10.078;2022-09-09T06:16:34;4.13;;;1.50;;
50102;SDS011;35993;52.604;10.078;2022-09-09T06:19:00;3.05;;;1.50;;
50102;SDS011;35993;52.604;10.078;2022-09-09T06:21:30;3.75;;;1.63;;
50102;SDS011;35993;52.604;10.078;2022-09-09T06:24:01;4.95;;;1.80;;
50102;SDS011;35993;52.604;10.078;2022-09-09T06:26:27;3.83;;;1.70;;
50102;SDS011;35993;52.604;10.078;2022-09-09T06:28:56;3.08;;;1.55;;
50102;SDS011;35993;52.604;10.078;2022-09-09T06:31:24;6.70;;;1.60;;
50102;SDS011;35993;52.604;10.078;2022-09-09T06:33:52;3.97;;;1.55;;
50102;SDS011;35993;52.604;10.078;2022-09-09T06:36:23;3.92;;;1.70;;
50102;SDS011;35993;52.604;10.078;2022-09-09T06:39:00;4.03;;;1.65;;
50102;SDS011;35993;52.604;10.078;2022-09-09T06:41:27;3.55;;;2.00;;
50102;SDS011;35993;52.604;10.078;2022-09-09T06:43:55;2.70;;;1.58;;
50102;SDS011;35993;52.604;10.078;2022-09-09T06:46:29;4.55;;;2.10;;
50102;SDS011;35993;52.604;10.078;2022-09-09T06:48:57;5.15;;;1.92;;
50102;SDS011;35993;52.604;10.078;2022-09-09T06:51:25;3.65;;;1.80;;
50102;SDS011;35993;52.604;10.078;2022-09-09T06:53:55;5.28;;;1.63;;
50102;SDS011;35993;52.604;10.078;2022-09-09T06:56:27;4.07;;;1.70;;
50102;SDS011;35993;52.604;10.078;2022-09-09T06:58:57;2.97;;;1.55;;
50102;SDS011;35993;52.604;10.078;2022-09-09T07:01:31;5.15;;;1.70;;
50102;SDS011;35993;52.604;10.078;2022-09-09T07:04:01;3.50;;;1.80;;
50102;SDS011;35993;52.604;10.078;2022-09-09T07:06:31;2.67;;;1.50;;
50102;SDS011;35993;52.604;10.078;2022-09-09T07:09:00;3.25;;;1.40;;
50102;SDS011;35993;52.604;10.078;2022-09-09T07:11:30;5.13;;;1.63;;
50102;SDS011;35993;52.604;10.078;2022-09-09T07:13:58;3.42;;;1.63;;
50102;SDS011;35993;52.604;10.078;2022-09-09T07:16:25;4.00;;;1.83;;
50102;SDS011;35993;52.604;10.078;2022-09-09T07:18:53;6.15;;;1.65;;
50102;SDS011;35993;52.604;10.078;2022-09-09T07:21:23;3.50;;;1.73;;
50102;SDS011;35993;52.604;10.078;2022-09-09T07:23:50;5.00;;;1.70;;
50102;SDS011;35993;52.604;10.078;2022-09-09T07:26:17;5.35;;;1.88;;
50102;SDS011;35993;52.604;10.078;2022-09-09T07:28:47;4.82;;;1.60;;
50102;SDS011;35993;52.604;10.078;2022-09-09T07:31:15;6.18;;;1.75;;
50102;SDS011;35993;52.604;10.078;2022-09-09T07:33:43;3.30;;;1.70;;
50102;SDS011;35993;52.604;10.078;2022-09-09T07:36:12;2.92;;;1.50;;
50102;SDS011;35993;52.604;10.078;2022-09-09T07:38:39;3.10;;;1.65;;
50102;SDS011;35993;52.604;10.078;2022-09-09T07:41:07;4.13;;;1.60;;
50102;SDS011;35993;52.604;10.078;2022-09-09T07:43:41;5.57;;;1.80;;
50102;SDS011;35993;52.604;10.078;2022-09-09T07:46:08;5.45;;;1.70;;
50102;SDS011;35993;52.604;10.078;2022-09-09T07:48:35;5.72;;;2.10;;
50102;SDS011;35993;52.604;10.078;2022-09-09T07:51:09;5.55;;;2.00;;
50102;SDS011;35993;52.604;10.078;2022-09-09T07:53:40;4.38;;;2.05;;
50102;SDS011;35993;52.604;10.078;2022-09-09T07:56:07;4.07;;;1.83;;
50102;SDS011;35993;52.604;10.078;2022-09-09T07:58:35;3.70;;;1.67;;
50102;SDS011;35993;52.604;10.078;2022-09-09T08:01:06;5.53;;;1.77;;
50102;SDS011;35993;52.604;10.078;2022-09-09T08:03:33;3.10;;;1.50;;
50102;SDS011;35993;52.604;10.078;2022-09-09T08:06:00;5.15;;;2.03;;
50102;SDS011;35993;52.604;10.078;2022-09-09T08:08:27;3.28;;;1.55;;
50102;SDS011;35993;52.604;10.078;2022-09-09T08:10:53;4.35;;;1.70;;
50102;SDS011;35993;52.604;10.078;2022-09-09T08:13:26;4.03;;;1.70;;
50102;SDS011;35993;52.604;10.078;2022-09-09T08:15:52;4.88;;;1.60;;
50102;SDS011;35993;52.604;10.078;2022-09-09T08:18:18;4.38;;;1.88;;
50102;SDS011;35993;52.604;10.078;2022-09-09T08:20:47;4.60;;;1.77;;
50102;SDS011;35993;52.604;10.078;2022-09-09T08:23:13;5.60;;;2.22;;
50102;SDS011;35993;52.604;10.078;2022-09-09T08:25:39;4.63;;;1.60;;
50102;SDS011;35993;52.604;10.078;2022-09-09T08:28:05;3.28;;;2.10;;
50102;SDS011;35993;52.604;10.078;2022-09-09T08:30:31;5.82;;;1.85;;
50102;SDS011;35993;52.604;10.078;2022-09-09T08:32:57;3.33;;;1.70;;
50102;SDS011;35993;52.604;10.078;2022-09-09T08:35:23;3.97;;;1.70;;
50102;SDS011;35993;52.604;10.078;2022-09-09T08:37:53;6.13;;;1.90;;
50102;SDS011;35993;52.604;10.078;2022-09-09T08:40:22;4.78;;;1.80;;
50102;SDS011;35993;52.604;10.078;2022-09-09T08:42:54;4.07;;;1.58;;
50102;SDS011;35993;52.604;10.078;2022-09-09T08:51:30;3.63;;;1.90;;
50102;SDS011;35993;52.604;10.078;2022-09-09T08:53:59;4.68;;;1.88;;
50102;SDS011;35993;52.604;10.078;2022-09-09T08:56:27;4.10;;;1.83;;
50102;SDS011;35993;52.604;10.078;2022-09-09T08:58:59;2.55;;;1.90;;
50102;SDS011;35993;52.604;10.078;2022-09-09T09:04:54;6.47;;;1.90;;
50102;SDS011;35993;52.604;10.078;2022-09-09T09:10:44;4.45;;;1.77;;
50102;SDS011;35993;52.604;10.078;2022-09-09T09:13:17;3.03;;;1.65;;
50102;SDS011;35993;52.604;10.078;2022-09-09T09:15:53;3.58;;;1.80;;
50102;SDS011;35993;52.604;10.078;2022-09-09T09:18:24;6.53;;;1.77;;
50102;SDS011;35993;52.604;10.078;2022-09-09T09:20:56;5.00;;;1.80;;
50102;SDS011;35993;52.604;10.078;2022-09-09T09:23:33;4.35;;;1.98;;
50102;SDS011;35993;52.604;10.078;2022-09-09T09:26:09;3.60;;;1.70;;
50102;SDS011;35993;52.604;10.078;2022-09-09T09:28:39;4.70;;;1.90;;
50102;SDS011;35993;52.604;10.078;2022-09-09T09:31:11;5.25;;;1.95;;
50102;SDS011;35993;52.604;10.078;2022-09-09T09:36:09;4.38;;;1.60;;
50102;SDS011;35993;52.604;10.078;2022-09-09T09:38:37;3.70;;;1.58;;
50102;SDS011;35993;52.604;10.078;2022-09-09T09:41:03;2.97;;;1.55;;
50102;SDS011;35993;52.604;10.078;2022-09-09T09:43:31;3.20;;;1.40;;
50102;SDS011;35993;52.604;10.078;2022-09-09T09:46:04;2.85;;;1.40;;
50102;SDS011;35993;52.604;10.078;2022-09-09T09:48:31;3.55;;;1.40;;
50102;SDS011;35993;52.604;10.078;2022-09-09T09:51:09;3.70;;;1.40;;
50102;SDS011;35993;52.604;10.078;2022-09-09T09:53:39;4.07;;;1.60;;
50102;SDS011;35993;52.604;10.078;2022-09-09T09:56:07;2.63;;;1.30;;
50102;SDS011;35993;52.604;10.078;2022-09-09T09:58:48;3.47;;;1.75;;
50102;SDS011;35993;52.604;10.078;2022-09-09T10:01:31;4.85;;;1.20;;
50102;SDS011;35993;52.604;10.078;2022-09-09T10:04:15;2.85;;;1.40;;
50102;SDS011;35993;52.604;10.078;2022-09-09T10:06:44;3.13;;;1.50;;
50102;SDS011;35993;52.604;10.078;2022-09-09T10:09:26;2.97;;;1.20;;
50102;SDS011;35993;52.604;10.078;2022-09-09T10:14:56;3.95;;;1.63;;
50102;SDS011;35993;52.604;10.078;2022-09-09T10:20:24;2.42;;;1.25;;
50102;SDS011;35993;52.604;10.078;2022-09-09T10:32:16;4.88;;;1.10;;
50102;SDS011;35993;52.604;10.078;2022-09-09T10:34:57;2.45;;;1.10;;
50102;SDS011;35993;52.604;10.078;2022-09-09T10:43:42;4.03;;;1.33;;
50102;SDS011;35993;52.604;10.078;2022-09-09T10:46:14;6.97;;;1.58;;
50102;SDS011;35993;52.604;10.078;2022-09-09T10:51:36;3.20;;;1.13;;
50102;SDS011;35993;52.604;10.078;2022-09-09T10:56:56;3.40;;;1.35;;
50102;SDS011;35993;52.604;10.078;2022-09-09T10:59:29;3.78;;;1.30;;
50102;SDS011;35993;52.604;10.078;2022-09-09T11:02:02;5.03;;;1.63;;
50102;SDS011;35993;52.604;10.078;2022-09-09T11:04:31;1.92;;;1.20;;
50102;SDS011;35993;52.604;10.078;2022-09-09T11:07:05;4.07;;;1.25;;
50102;SDS011;35993;52.604;10.078;2022-09-09T11:09:37;5.30;;;1.25;;
50102;SDS011;35993;52.604;10.078;2022-09-09T11:12:13;4.38;;;1.30;;
50102;SDS011;35993;52.604;10.078;2022-09-09T11:19:49;7.00;;;1.58;;
50102;SDS011;35993;52.604;10.078;2022-09-09T11:24:53;8.43;;;1.73;;
50102;SDS011;35993;52.604;10.078;2022-09-09T11:38:46;4.72;;;1.60;;
50102;SDS011;35993;52.604;10.078;2022-09-09T11:41:16;4.45;;;1.50;;
50102;SDS011;35993;52.604;10.078;2022-09-09T11:43:44;3.40;;;1.38;;
50102;SDS011;35993;52.604;10.078;2022-09-09T11:46:12;4.13;;;1.45;;
50102;SDS011;35993;52.604;10.078;2022-09-09T11:48:41;4.05;;;1.30;;
50102;SDS011;35993;52.604;10.078;2022-09-09T11:51:25;5.15;;;1.50;;
50102;SDS011;35993;52.604;10.078;2022-09-09T11:53:57;3.60;;;1.27;;
50102;SDS011;35993;52.604;10.078;2022-09-09T11:56:33;6.22;;;1.25;;
50102;SDS011;35993;52.604;10.078;2022-09-09T11:59:06;8.00;;;1.45;;
50102;SDS011;35993;52.604;10.078;2022-09-09T12:01:59;3.08;;;1.10;;
50102;SDS011;35993;52.604;10.078;2022-09-09T12:04:31;3.55;;;1.30;;
50102;SDS011;35993;52.604;10.078;2022-09-09T12:09:56;2.53;;;1.20;;
50102;SDS011;35993;52.604;10.078;2022-09-09T12:12:31;4.13;;;1.38;;
50102;SDS011;35993;52.604;10.078;2022-09-09T12:15:03;3.55;;;1.17;;
50102;SDS011;35993;52.604;10.078;2022-09-09T12:17:50;4.72;;;1.48;;
50102;SDS011;35993;52.604;10.078;2022-09-09T12:20:23;4.60;;;1.33;;
50102;SDS011;35993;52.604;10.078;2022-09-09T12:31:46;3.42;;;1.02;;
50102;SDS011;35993;52.604;10.078;2022-09-09T12:40:06;1.95;;;1.02;;
50102;SDS011;35993;52.604;10.078;2022-09-09T12:42:44;4.47;;;1.17;;
50102;SDS011;35993;52.604;10.078;2022-09-09T12:45:17;4.95;;;1.25;;
50102;SDS011;35993;52.604;10.078;2022-09-09T12:47:50;3.97;;;1.10;;
50102;SDS011;35993;52.604;10.078;2022-09-09T12:50:21;3.65;;;1.23;;
50102;SDS011;35993;52.604;10.078;2022-09-09T12:52:51;4.03;;;1.33;;
50102;SDS011;35993;52.604;10.078;2022-09-09T12:55:20;3.88;;;1.40;;
50102;SDS011;35993;52.604;10.078;2022-09-09T12:57:50;1.73;;;0.85;;
50102;SDS011;35993;52.604;10.078;2022-09-09T13:02:46;4.03;;;1.20;;
50102;SDS011;35993;52.604;10.078;2022-09-09T13:05:28;3.80;;;0.90;;
50102;SDS011;35993;52.604;10.078;2022-09-09T13:08:00;1.85;;;0.80;;
50102;SDS011;35993;52.604;10.078;2022-09-09T13:10:28;2.08;;;0.80;;
50102;SDS011;35993;52.604;10.078;2022-09-09T13:12:58;4.32;;;1.10;;
50102;SDS011;35993;52.604;10.078;2022-09-09T13:15:26;3.50;;;0.93;;
50102;SDS011;35993;52.604;10.078;2022-09-09T13:17:55;5.60;;;1.08;;
50102;SDS011;35993;52.604;10.078;2022-09-09T13:20:23;2.92;;;0.73;;
50102;SDS011;35993;52.604;10.078;2022-09-09T13:22:50;2.08;;;0.93;;
50102;SDS011;35993;52.604;10.078;2022-09-09T13:25:22;2.45;;;0.93;;
50102;SDS011;35993;52.604;10.078;2022-09-09T13:27:55;3.42;;;0.93;;
50102;SDS011;35993;52.604;10.078;2022-09-09T13:30:34;2.30;;;0.98;;
50102;SDS011;35993;52.604;10.078;2022-09-09T13:38:16;3.22;;;0.80;;
50102;SDS011;35993;52.604;10.078;2022-09-09T13:40:54;2.60;;;0.90;;
50102;SDS011;35993;52.604;10.078;2022-09-09T13:43:27;1.52;;;0.93;;
50102;SDS011;35993;52.604;10.078;2022-09-09T13:45:56;2.20;;;0.90;;
50102;SDS011;35993;52.604;10.078;2022-09-09T13:48:25;2.63;;;0.90;;
50102;SDS011;35993;52.604;10.078;2022-09-09T13:50:55;3.33;;;0.95;;
50102;SDS011;35993;52.604;10.078;2022-09-09T13:53:22;3.17;;;0.90;;
50102;SDS011;35993;52.604;10.078;2022-09-09T13:55:47;2.63;;;0.90;;
50102;SDS011;35993;52.604;10.078;2022-09-09T13:58:16;2.75;;;0.90;;
50102;SDS011;35993;52.604;10.078;2022-09-09T14:00:44;2.75;;;0.88;;
50102;SDS011;35993;52.604;10.078;2022-09-09T14:03:11;2.22;;;0.90;;
50102;SDS011;35993;52.604;10.078;2022-09-09T14:05:37;2.42;;;1.00;;
50102;SDS011;35993;52.604;10.078;2022-09-09T14:08:03;2.55;;;0.98;;
50102;SDS011;35993;52.604;10.078;2022-09-09T14:10:31;3.13;;;1.02;;
50102;SDS011;35993;52.604;10.078;2022-09-09T14:12:57;2.03;;;0.90;;
50102;SDS011;35993;52.604;10.078;2022-09-09T14:15:22;3.10;;;1.13;;
50102;SDS011;35993;52.604;10.078;2022-09-09T14:17:48;2.10;;;0.90;;
50102;SDS011;35993;52.604;10.078;2022-09-09T14:20:14;1.95;;;0.73;;
50102;SDS011;35993;52.604;10.078;2022-09-09T14:22:41;2.70;;;1.10;;
50102;SDS011;35993;52.604;10.078;2022-09-09T14:25:07;2.90;;;0.90;;
50102;SDS011;35993;52.604;10.078;2022-09-09T14:27:33;3.25;;;0.85;;
50102;SDS011;35993;52.604;10.078;2022-09-09T14:29:58;3.63;;;1.00;;
50102;SDS011;35993;52.604;10.078;2022-09-09T14:32:26;2.80;;;0.90;;
50102;SDS011;35993;52.604;10.078;2022-09-09T14:34:51;4.45;;;0.90;;
50102;SDS011;35993;52.604;10.078;2022-09-09T14:37:17;2.35;;;0.73;;
50102;SDS011;35993;52.604;10.078;2022-09-09T14:39:44;3.88;;;1.35;;
50102;SDS011;35993;52.604;10.078;2022-09-09T14:42:10;8.48;;;1.38;;
50102;SDS011;35993;52.604;10.078;2022-09-09T14:44:36;4.68;;;1.60;;
50102;SDS011;35993;52.604;10.078;2022-09-09T14:47:04;1.83;;;0.65;;
50102;SDS011;35993;52.604;10.078;2022-09-09T14:49:30;2.60;;;0.90;;
50102;SDS011;35993;52.604;10.078;2022-09-09T14:51:56;2.70;;;0.70;;
50102;SDS011;35993;52.604;10.078;2022-09-09T14:54:22;4.65;;;1.08;;
50102;SDS011;35993;52.604;10.078;2022-09-09T14:56:48;3.78;;;0.80;;
50102;SDS011;35993;52.604;10.078;2022-09-09T14:59:14;3.13;;;0.80;;
50102;SDS011;35993;52.604;10.078;2022-09-09T15:01:39;2.72;;;0.70;;
50102;SDS011;35993;52.604;10.078;2022-09-09T15:04:06;3.33;;;0.93;;
50102;SDS011;35993;52.604;10.078;2022-09-09T15:06:33;4.53;;;1.10;;
50102;SDS011;35993;52.604;10.078;2022-09-09T15:09:02;3.45;;;1.00;;
50102;SDS011;35993;52.604;10.078;2022-09-09T15:11:29;2.35;;;0.95;;
50102;SDS011;35993;52.604;10.078;2022-09-09T15:13:57;3.50;;;0.90;;
50102;SDS011;35993;52.604;10.078;2022-09-09T15:16:24;3.40;;;1.10;;
50102;SDS011;35993;52.604;10.078;2022-09-09T15:18:53;1.88;;;0.90;;
50102;SDS011;35993;52.604;10.078;2022-09-09T15:21:22;4.07;;;1.02;;
50102;SDS011;35993;52.604;10.078;2022-09-09T15:23:49;2.10;;;1.00;;
50102;SDS011;35993;52.604;10.078;2022-09-09T15:26:16;4.40;;;1.13;;
50102;SDS011;35993;52.604;10.078;2022-09-09T15:28:43;2.55;;;0.93;;
50102;SDS011;35993;52.604;10.078;2022-09-09T15:31:11;3.45;;;1.00;;
50102;SDS011;35993;52.604;10.078;2022-09-09T15:33:40;2.72;;;0.90;;
50102;SDS011;35993;52.604;10.078;2022-09-09T15:36:16;4.30;;;1.10;;
50102;SDS011;35993;52.604;10.078;2022-09-09T15:38:44;3.90;;;1.38;;
50102;SDS011;35993;52.604;10.078;2022-09-09T15:41:10;1.55;;;0.88;;
50102;SDS011;35993;52.604;10.078;2022-09-09T15:43:37;2.60;;;1.02;;
50102;SDS011;35993;52.604;10.078;2022-09-09T15:46:23;2.92;;;1.05;;
50102;SDS011;35993;52.604;10.078;2022-09-09T15:48:55;3.08;;;0.80;;
50102;SDS011;35993;52.604;10.078;2022-09-09T15:51:22;4.55;;;1.00;;
50102;SDS011;35993;52.604;10.078;2022-09-09T15:53:57;5.45;;;1.27;;
50102;SDS011;35993;52.604;10.078;2022-09-09T15:56:26;2.28;;;1.10;;
50102;SDS011;35993;52.604;10.078;2022-09-09T15:58:54;2.72;;;0.82;;
50102;SDS011;35993;52.604;10.078;2022-09-09T16:01:21;6.57;;;1.20;;
50102;SDS011;35993;52.604;10.078;2022-09-09T16:03:46;3.70;;;0.93;;
50102;SDS011;35993;52.604;10.078;2022-09-09T16:06:12;5.18;;;0.90;;
50102;SDS011;35993;52.604;10.078;2022-09-09T16:08:40;4.78;;;0.90;;
50102;SDS011;35993;52.604;10.078;2022-09-09T16:11:09;3.47;;;1.00;;
50102;SDS011;35993;52.604;10.078;2022-09-09T16:13:38;2.60;;;1.00;;
50102;SDS011;35993;52.604;10.078;2022-09-09T16:16:04;2.28;;;1.10;;
50102;SDS011;35993;52.604;10.078;2022-09-09T16:18:44;1.48;;;0.85;;
50102;SDS011;35993;52.604;10.078;2022-09-09T16:21:15;3.25;;;0.88;;
50102;SDS011;35993;52.604;10.078;2022-09-09T16:23:43;2.28;;;0.95;;
50102;SDS011;35993;52.604;10.078;2022-09-09T16:26:13;2.67;;;0.98;;
50102;SDS011;35993;52.604;10.078;2022-09-09T16:28:39;2.40;;;0.80;;
50102;SDS011;35993;52.604;10.078;2022-09-09T16:31:05;2.55;;;0.98;;
50102;SDS011;35993;52.604;10.078;2022-09-09T16:33:32;3.17;;;0.90;;
50102;SDS011;35993;52.604;10.078;2022-09-09T16:35:58;3.25;;;1.08;;
50102;SDS011;35993;52.604;10.078;2022-09-09T16:38:30;1.95;;;1.15;;
50102;SDS011;35993;52.604;10.078;2022-09-09T16:40:59;2.22;;;1.08;;
50102;SDS011;35993;52.604;10.078;2022-09-09T16:43:25;4.47;;;1.08;;
50102;SDS011;35993;52.604;10.078;2022-09-09T16:45:51;3.20;;;1.13;;
50102;SDS011;35993;52.604;10.078;2022-09-09T16:48:16;4.15;;;1.30;;
50102;SDS011;35993;52.604;10.078;2022-09-09T16:50:42;2.33;;;1.30;;
50102;SDS011;35993;52.604;10.078;2022-09-09T16:53:07;4.30;;;1.23;;
50102;SDS011;35993;52.604;10.078;2022-09-09T16:55:38;4.85;;;1.23;;
50102;SDS011;35993;52.604;10.078;2022-09-09T16:58:05;3.05;;;1.20;;
50102;SDS011;35993;52.604;10.078;2022-09-09T17:00:31;3.22;;;1.20;;
50102;SDS011;35993;52.604;10.078;2022-09-09T17:02:56;3.22;;;1.00;;
50102;SDS011;35993;52.604;10.078;2022-09-09T17:05:22;2.63;;;1.10;;
50102;SDS011;35993;52.604;10.078;2022-09-09T17:07:48;4.82;;;1.30;;
50102;SDS011;35993;52.604;10.078;2022-09-09T17:10:14;1.75;;;1.02;;